Blue Merlin — DLQB — position and weather

sailwx.info

Track history (hours):
 
Tides and Currents Weather Stations Pressure Air Temp Water Temp Dewpoint Dewpoint Depression Visibility Wind Speed Wind Dir Waves Ship Positions

Blue Merlin

Last reported at 2017-Oct-28 05:35 UTC. Time now 2017-Nov-22 16:44 UTC.
Position N 47°29' W 002°43'.
Warning: this ship's position is 25 days out of date.

Length 17 m.

Type: Pleasure craft. MMSI: 211499550.

Date/timePositionNaut miles runAvg speedWind from/ knotsBaromVisibWave heightAir tempDewpointWater temp
2017-Oct-28 05:35N 47°29' W 002°43'1 0.0
2017-Oct-27 12:49N 47°30' W 002°43'2 4.0
2017-Oct-27 12:23N 47°28' W 002°45'6 5.4
2017-Oct-27 11:16N 47°29' W 002°53'2 6.0
2017-Oct-27 10:58N 47°31' W 002°55'3 6.2
2017-Oct-27 10:30N 47°34' W 002°54'3 6.1
2017-Oct-27 10:00N 47°36' W 002°51'3 5.9
2017-Oct-27 09:30N 47°37' W 002°47'2 4.3
2017-Oct-27 09:00N 47°39' W 002°45'0 0.0
2017-Oct-26 08:43N 47°39' W 002°45'0 2.0
2017-Oct-26 08:30N 47°39' W 002°46'2 4.9
2017-Oct-26 08:00N 47°37' W 002°48'3 6.3
2017-Oct-26 07:29N 47°35' W 002°52'7 5.8
2017-Oct-26 06:13N 47°30' W 003°00'2 6.0
2017-Oct-26 05:52N 47°30' W 003°04'2 0.1
2017-Oct-25 14:24N 47°29' W 003°06'3 5.6
2017-Oct-25 13:56N 47°31' W 003°04'3 6.0
2017-Oct-25 13:30N 47°33' W 003°01'2 0.1
2017-Oct-24 13:42N 47°35' W 003°02'1 4.5
2017-Oct-24 13:30N 47°35' W 003°01'2 3.8
2017-Oct-24 13:00N 47°33' W 002°60'3 4.5
2017-Oct-24 12:22N 47°31' W 002°57'2 4.7
2017-Oct-24 11:58N 47°29' W 002°55'2 4.1
2017-Oct-24 11:25N 47°29' W 002°52'2 4.0
2017-Oct-24 10:48N 47°28' W 002°48'2 5.0
2017-Oct-24 10:26N 47°28' W 002°46'3 5.8
2017-Oct-24 09:59N 47°28' W 002°42'  
Track history (hours):
 
Tides and Currents Weather Stations Pressure Air Temp Water Temp Dewpoint Dewpoint Depression Visibility Wind Speed Wind Dir Waves Ship Positions

Blue Merlin

Last reported at 2017-Oct-28 05:35 UTC. Time now 2017-Nov-22 16:44 UTC.
Position N 47°29' W 002°43'.
Warning: this ship's position is 25 days out of date.

Length 17 m.

Type: Pleasure craft. MMSI: 211499550.

Date/timePositionNaut miles runAvg speedWind from/ knotsBaromVisibWave heightAir tempDewpointWater temp
2017-Oct-28 05:35N 47°29' W 002°43'1 0.0
2017-Oct-27 12:49N 47°30' W 002°43'2 4.0
2017-Oct-27 12:23N 47°28' W 002°45'6 5.4
2017-Oct-27 11:16N 47°29' W 002°53'2 6.0
2017-Oct-27 10:58N 47°31' W 002°55'3 6.2
2017-Oct-27 10:30N 47°34' W 002°54'3 6.1
2017-Oct-27 10:00N 47°36' W 002°51'3 5.9
2017-Oct-27 09:30N 47°37' W 002°47'2 4.3
2017-Oct-27 09:00N 47°39' W 002°45'0 0.0
2017-Oct-26 08:43N 47°39' W 002°45'0 2.0
2017-Oct-26 08:30N 47°39' W 002°46'2 4.9
2017-Oct-26 08:00N 47°37' W 002°48'3 6.3
2017-Oct-26 07:29N 47°35' W 002°52'7 5.8
2017-Oct-26 06:13N 47°30' W 003°00'2 6.0
2017-Oct-26 05:52N 47°30' W 003°04'2 0.1
2017-Oct-25 14:24N 47°29' W 003°06'3 5.6
2017-Oct-25 13:56N 47°31' W 003°04'3 6.0
2017-Oct-25 13:30N 47°33' W 003°01'2 0.1
2017-Oct-24 13:42N 47°35' W 003°02'1 4.5
2017-Oct-24 13:30N 47°35' W 003°01'2 3.8
2017-Oct-24 13:00N 47°33' W 002°60'3 4.5
2017-Oct-24 12:22N 47°31' W 002°57'2 4.7
2017-Oct-24 11:58N 47°29' W 002°55'2 4.1
2017-Oct-24 11:25N 47°29' W 002°52'2 4.0
2017-Oct-24 10:48N 47°28' W 002°48'2 5.0
2017-Oct-24 10:26N 47°28' W 002°46'3 5.8
2017-Oct-24 09:59N 47°28' W 002°42'  

Dump ship's entire track history